WXM80 ListenWXM80 Stop

You find our weather info also at:

UK Metoffice

WeatherCloud

Weather Underground

Northeastern Weather Network

AWEKAS

Citizen Weather Observer Program (CWOP)

HAMweather, WeatherForYou, PWS Weather


Weather Underground History page Text

Daily Summary for March 08, 2018 Units:  Both    English   Metric
« Previous Day
Next Day »
Daily Weekly Monthly Yearly Custom
  High: Low: Average:
Temperature: 45.9 °F /  7.7 °C 33.7 °F /  0.9 °C 37.9 °F /  3.3 °C
Dew Point: 36.1 °F /  2.3 °C 26.8 °F /  -2.9 °C 31.7 °F /  -0.2 °C
Humidity: 96 % 63 % 79 %
Wind Speed: 11.0 mph /  17.7 km/h - 4.6 mph /  7.4 km/h
Wind Gust: 18.0 mph /  29 km/h - -
Wind:- - West
Pressure: 29.46 in /  997.5 hPa 29.37 in /  994.5 hPa -
Precipitation: 0.03 in /  0.76 mm    
Historical Graphs
 
 
Tabular Data for March 08, 2018
Time Temperature Dew Point Pressure Wind Wind Speed Wind Gust Humidity Rainfall Rate (Hourly)
00:02 33.9 °F /  1.1 °C 32.9 °F /  0.5 °C 29.37 in /  994.5 hPa WNW 11.0 mph /  17.7 km/h 15.0 mph /  24.1 km/h 96 % 0.03 in /  0.76 mm
00:07 33.9 °F /  1.1 °C 32.9 °F /  0.5 °C 29.37 in /  994.5 hPa NW 3.8 mph /  6.1 km/h 9.2 mph /  14.8 km/h 96 % 0.03 in /  0.76 mm
00:12 33.9 °F /  1.1 °C 32.9 °F /  0.5 °C 29.37 in /  994.5 hPa WNW 6.1 mph /  9.8 km/h 10.4 mph /  16.7 km/h 96 % 0.02 in /  0.51 mm
00:17 33.8 °F /  1 °C 32.8 °F /  0.4 °C 29.37 in /  994.5 hPa WNW 7.9 mph /  12.7 km/h 13.8 mph /  22.2 km/h 96 % 0.02 in /  0.51 mm
00:22 33.8 °F /  1 °C 32.8 °F /  0.4 °C 29.37 in /  994.5 hPa West 7.3 mph /  11.7 km/h 11.5 mph /  18.5 km/h 96 % 0.02 in /  0.51 mm
00:27 33.9 °F /  1.1 °C 32.9 °F /  0.5 °C 29.37 in /  994.5 hPa NW 7.2 mph /  11.6 km/h 12.7 mph /  20.4 km/h 96 % 0.01 in /  0.25 mm
00:32 33.8 °F /  1 °C 32.8 °F /  0.4 °C 29.38 in /  994.8 hPa WNW 8.3 mph /  13.4 km/h 13.8 mph /  22.2 km/h 96 % 0.02 in /  0.51 mm
00:37 33.8 °F /  1 °C 32.8 °F /  0.4 °C 29.38 in /  994.8 hPa NW 7.2 mph /  11.6 km/h 12.7 mph /  20.4 km/h 96 % 0.02 in /  0.51 mm
00:42 33.8 °F /  1 °C 32.8 °F /  0.4 °C 29.38 in /  994.8 hPa West 7.0 mph /  11.3 km/h 16.1 mph /  25.9 km/h 96 % 0.02 in /  0.51 mm
00:47 33.7 °F /  0.9 °C 32.7 °F /  0.4 °C 29.39 in /  995.1 hPa WNW 6.2 mph /  10 km/h 6.9 mph /  11.1 km/h 96 % 0.02 in /  0.51 mm
00:52 33.7 °F /  0.9 °C 32.7 °F /  0.4 °C 29.38 in /  994.8 hPa West 5.9 mph /  9.5 km/h 11.5 mph /  18.5 km/h 96 % 0.01 in /  0.25 mm
00:57 33.7 °F /  0.9 °C 32.7 °F /  0.4 °C 29.39 in /  995.1 hPa NNW 4.9 mph /  7.9 km/h 11.5 mph /  18.5 km/h 96 % 0.01 in /  0.25 mm
01:02 33.7 °F /  0.9 °C 32.7 °F /  0.4 °C 29.39 in /  995.1 hPa West 5.1 mph /  8.2 km/h 10.4 mph /  16.7 km/h 96 % 0.01 in /  0.25 mm
01:07 33.7 °F /  0.9 °C 32.7 °F /  0.4 °C 29.39 in /  995.1 hPa NW 5.1 mph /  8.2 km/h 9.0 mph /  14.5 km/h 96 % 0.01 in /  0.25 mm
01:13 33.7 °F /  0.9 °C 32.7 °F /  0.4 °C 29.40 in /  995.5 hPa SW 6.6 mph /  10.6 km/h 12.7 mph /  20.4 km/h 96 % 0.01 in /  0.25 mm
01:18 33.8 °F /  1 °C 32.8 °F /  0.4 °C 29.40 in /  995.5 hPa WNW 3.0 mph /  4.8 km/h 7.0 mph /  11.3 km/h 96 % 0.01 in /  0.25 mm
01:23 33.8 °F /  1 °C 32.8 °F /  0.4 °C 29.40 in /  995.5 hPa WNW 4.7 mph /  7.6 km/h 9.2 mph /  14.8 km/h 96 % 0.01 in /  0.25 mm
01:28 33.8 °F /  1 °C 32.8 °F /  0.4 °C 29.40 in /  995.5 hPa West 6.0 mph /  9.7 km/h 9.2 mph /  14.8 km/h 96 % 0.01 in /  0.25 mm
01:33 33.8 °F /  1 °C 32.8 °F /  0.4 °C 29.40 in /  995.5 hPa NW 5.8 mph /  9.3 km/h 11.5 mph /  18.5 km/h 96 % 0.00 in /  0 mm
01:38 33.8 °F /  1 °C 32.8 °F /  0.4 °C 29.40 in /  995.5 hPa WNW 7.0 mph /  11.3 km/h 11.5 mph /  18.5 km/h 96 % 0.00 in /  0 mm
01:43 33.9 °F /  1.1 °C 32.9 °F /  0.5 °C 29.40 in /  995.5 hPa WNW 4.0 mph /  6.4 km/h 10.4 mph /  16.7 km/h 96 % 0.00 in /  0 mm
01:48 33.9 °F /  1.1 °C 32.9 °F /  0.5 °C 29.40 in /  995.5 hPa NNW 2.2 mph /  3.5 km/h 8.0 mph /  12.9 km/h 96 % 0.01 in /  0.25 mm
01:53 33.9 °F /  1.1 °C 32.9 °F /  0.5 °C 29.40 in /  995.5 hPa WNW 3.9 mph /  6.3 km/h 5.8 mph /  9.3 km/h 96 % 0.01 in /  0.25 mm
01:58 33.9 °F /  1.1 °C 32.9 °F /  0.5 °C 29.39 in /  995.1 hPa NW 7.3 mph /  11.7 km/h 14.0 mph /  22.5 km/h 96 % 0.01 in /  0.25 mm
02:03 33.9 °F /  1.1 °C 32.6 °F /  0.3 °C 29.39 in /  995.1 hPa NW 7.0 mph /  11.3 km/h 14.0 mph /  22.5 km/h 95 % 0.01 in /  0.25 mm
02:08 34.0 °F /  1.1 °C 32.7 °F /  0.4 °C 29.40 in /  995.5 hPa WNW 7.6 mph /  12.2 km/h 15.0 mph /  24.1 km/h 95 % 0.01 in /  0.25 mm
02:13 34.0 °F /  1.1 °C 32.7 °F /  0.4 °C 29.40 in /  995.5 hPa NW 9.6 mph /  15.4 km/h 18.0 mph /  29 km/h 95 % 0.01 in /  0.25 mm
02:18 34.0 °F /  1.1 °C 32.7 °F /  0.4 °C 29.39 in /  995.1 hPa WNW 7.2 mph /  11.6 km/h 12.7 mph /  20.4 km/h 95 % 0.01 in /  0.25 mm
02:23 34.1 °F /  1.2 °C 32.8 °F /  0.4 °C 29.39 in /  995.1 hPa NW 6.4 mph /  10.3 km/h 16.1 mph /  25.9 km/h 95 % 0.01 in /  0.25 mm
02:28 34.1 °F /  1.2 °C 32.8 °F /  0.4 °C 29.39 in /  995.1 hPa WNW 6.3 mph /  10.1 km/h 10.4 mph /  16.7 km/h 95 % 0.01 in /  0.25 mm
02:33 34.1 °F /  1.2 °C 32.8 °F /  0.4 °C 29.39 in /  995.1 hPa NNW 7.0 mph /  11.3 km/h 11.5 mph /  18.5 km/h 95 % 0.01 in /  0.25 mm
02:38 34.2 °F /  1.2 °C 32.9 °F /  0.5 °C 29.39 in /  995.1 hPa WNW 7.6 mph /  12.2 km/h 15.0 mph /  24.1 km/h 95 % 0.01 in /  0.25 mm
02:43 34.2 °F /  1.2 °C 32.9 °F /  0.5 °C 29.39 in /  995.1 hPa NNW 5.7 mph /  9.2 km/h 12.7 mph /  20.4 km/h 95 % 0.01 in /  0.25 mm
02:48 34.2 °F /  1.2 °C 32.9 °F /  0.5 °C 29.39 in /  995.1 hPa WNW 6.2 mph /  10 km/h 13.8 mph /  22.2 km/h 95 % 0.00 in /  0 mm
02:54 34.2 °F /  1.2 °C 32.9 °F /  0.5 °C 29.39 in /  995.1 hPa NW 5.5 mph /  8.9 km/h 6.0 mph /  9.7 km/h 95 % 0.00 in /  0 mm
02:59 34.2 °F /  1.2 °C 32.9 °F /  0.5 °C 29.38 in /  994.8 hPa NW 3.1 mph /  5 km/h 11.5 mph /  18.5 km/h 95 % 0.00 in /  0 mm
03:04 34.2 °F /  1.2 °C 32.9 °F /  0.5 °C 29.39 in /  995.1 hPa NW 9.2 mph /  14.8 km/h 13.8 mph /  22.2 km/h 95 % 0.01 in /  0.25 mm
03:09 34.2 °F /  1.2 °C 32.9 °F /  0.5 °C 29.38 in /  994.8 hPa WNW 5.7 mph /  9.2 km/h 10.4 mph /  16.7 km/h 95 % 0.01 in /  0.25 mm
03:14 34.3 °F /  1.3 °C 32.8 °F /  0.4 °C 29.39 in /  995.1 hPa NW 4.9 mph /  7.9 km/h 11.5 mph /  18.5 km/h 94 % 0.01 in /  0.25 mm
03:19 34.3 °F /  1.3 °C 32.8 °F /  0.4 °C 29.39 in /  995.1 hPa WNW 3.7 mph /  6 km/h 9.2 mph /  14.8 km/h 94 % 0.01 in /  0.25 mm
03:24 34.3 °F /  1.3 °C 32.8 °F /  0.4 °C 29.39 in /  995.1 hPa West 4.2 mph /  6.8 km/h 9.2 mph /  14.8 km/h 94 % 0.01 in /  0.25 mm
03:29 34.3 °F /  1.3 °C 32.8 °F /  0.4 °C 29.39 in /  995.1 hPa West 4.9 mph /  7.9 km/h 10.4 mph /  16.7 km/h 94 % 0.01 in /  0.25 mm
03:34 34.3 °F /  1.3 °C 32.8 °F /  0.4 °C 29.39 in /  995.1 hPa NW 6.8 mph /  10.9 km/h 10.4 mph /  16.7 km/h 94 % 0.01 in /  0.25 mm
03:39 34.3 °F /  1.3 °C 32.8 °F /  0.4 °C 29.39 in /  995.1 hPa West 4.8 mph /  7.7 km/h 6.9 mph /  11.1 km/h 94 % 0.01 in /  0.25 mm
03:44 34.3 °F /  1.3 °C 32.8 °F /  0.4 °C 29.38 in /  994.8 hPa NW 6.3 mph /  10.1 km/h 10.4 mph /  16.7 km/h 94 % 0.01 in /  0.25 mm
03:49 34.3 °F /  1.3 °C 32.8 °F /  0.4 °C 29.39 in /  995.1 hPa NNW 6.7 mph /  10.8 km/h 12.7 mph /  20.4 km/h 94 % 0.01 in /  0.25 mm
03:54 34.3 °F /  1.3 °C 32.8 °F /  0.4 °C 29.39 in /  995.1 hPa NW 4.6 mph /  7.4 km/h 10.0 mph /  16.1 km/h 94 % 0.01 in /  0.25 mm
03:59 34.3 °F /  1.3 °C 32.8 °F /  0.4 °C 29.39 in /  995.1 hPa NW 1.7 mph /  2.7 km/h 10.4 mph /  16.7 km/h 94 % 0.01 in /  0.25 mm
04:04 34.3 °F /  1.3 °C 32.8 °F /  0.4 °C 29.39 in /  995.1 hPa NW 6.2 mph /  10 km/h 11.5 mph /  18.5 km/h 94 % 0.00 in /  0 mm
04:09 34.3 °F /  1.3 °C 32.8 °F /  0.4 °C 29.38 in /  994.8 hPa NNW 5.4 mph /  8.7 km/h 9.2 mph /  14.8 km/h 94 % 0.00 in /  0 mm
04:14 34.3 °F /  1.3 °C 32.5 °F /  0.3 °C 29.39 in /  995.1 hPa WNW 3.0 mph /  4.8 km/h 11.5 mph /  18.5 km/h 93 % 0.00 in /  0 mm
04:19 34.3 °F /  1.3 °C 32.5 °F /  0.3 °C 29.39 in /  995.1 hPa NW 3.6 mph /  5.8 km/h 6.9 mph /  11.1 km/h 93 % 0.00 in /  0 mm
04:25 34.3 °F /  1.3 °C 32.5 °F /  0.3 °C 29.39 in /  995.1 hPa NNW 2.2 mph /  3.5 km/h 8.1 mph /  13 km/h 93 % 0.00 in /  0 mm
04:30 34.3 °F /  1.3 °C 32.5 °F /  0.3 °C 29.39 in /  995.1 hPa NW 4.1 mph /  6.6 km/h 10.4 mph /  16.7 km/h 93 % 0.00 in /  0 mm
04:35 34.4 °F /  1.3 °C 32.6 °F /  0.3 °C 29.39 in /  995.1 hPa WNW 4.7 mph /  7.6 km/h 12.7 mph /  20.4 km/h 93 % 0.00 in /  0 mm
04:40 34.4 °F /  1.3 °C 32.6 °F /  0.3 °C 29.39 in /  995.1 hPa West 4.7 mph /  7.6 km/h 8.1 mph /  13 km/h 93 % 0.00 in /  0 mm
04:45 34.4 °F /  1.3 °C 32.6 °F /  0.3 °C 29.39 in /  995.1 hPa NNW 4.0 mph /  6.4 km/h 8.1 mph /  13 km/h 93 % 0.00 in /  0 mm
04:50 34.4 °F /  1.3 °C 32.6 °F /  0.3 °C 29.40 in /  995.5 hPa NW 4.2 mph /  6.8 km/h 9.2 mph /  14.8 km/h 93 % 0.00 in /  0 mm
04:55 34.4 °F /  1.3 °C 32.6 °F /  0.3 °C 29.39 in /  995.1 hPa NW 3.2 mph /  5.1 km/h 9.2 mph /  14.8 km/h 93 % 0.00 in /  0 mm
05:00 34.4 °F /  1.3 °C 32.3 °F /  0.2 °C 29.39 in /  995.1 hPa NW 5.3 mph /  8.5 km/h 10.4 mph /  16.7 km/h 92 % 0.00 in /  0 mm
05:05 34.4 °F /  1.3 °C 32.3 °F /  0.2 °C 29.40 in /  995.5 hPa NW 3.3 mph /  5.3 km/h 6.9 mph /  11.1 km/h 92 % 0.00 in /  0 mm
05:10 34.4 °F /  1.3 °C 32.3 °F /  0.2 °C 29.40 in /  995.5 hPa NW 5.2 mph /  8.4 km/h 11.5 mph /  18.5 km/h 92 % 0.00 in /  0 mm
05:15 34.4 °F /  1.3 °C 32.3 °F /  0.2 °C 29.40 in /  995.5 hPa NW 5.5 mph /  8.9 km/h 10.4 mph /  16.7 km/h 92 % 0.00 in /  0 mm
05:20 34.4 °F /  1.3 °C 32.3 °F /  0.2 °C 29.40 in /  995.5 hPa WNW 3.8 mph /  6.1 km/h 6.9 mph /  11.1 km/h 92 % 0.00 in /  0 mm
05:25 34.5 °F /  1.4 °C 32.4 °F /  0.2 °C 29.40 in /  995.5 hPa WNW 6.7 mph /  10.8 km/h 12.7 mph /  20.4 km/h 92 % 0.00 in /  0 mm
05:30 34.5 °F /  1.4 °C 32.4 °F /  0.2 °C 29.40 in /  995.5 hPa WNW 5.6 mph /  9 km/h 9.2 mph /  14.8 km/h 92 % 0.00 in /  0 mm
05:35 34.5 °F /  1.4 °C 32.4 °F /  0.2 °C 29.40 in /  995.5 hPa NNW 7.1 mph /  11.4 km/h 10.4 mph /  16.7 km/h 92 % 0.00 in /  0 mm
05:40 34.5 °F /  1.4 °C 32.4 °F /  0.2 °C 29.41 in /  995.8 hPa WNW 5.8 mph /  9.3 km/h 9.2 mph /  14.8 km/h 92 % 0.00 in /  0 mm
05:45 34.5 °F /  1.4 °C 32.4 °F /  0.2 °C 29.41 in /  995.8 hPa NW 6.0 mph /  9.7 km/h 10.0 mph /  16.1 km/h 92 % 0.00 in /  0 mm
05:50 34.5 °F /  1.4 °C 32.4 °F /  0.2 °C 29.41 in /  995.8 hPa WNW 4.7 mph /  7.6 km/h 10.4 mph /  16.7 km/h 92 % 0.00 in /  0 mm
05:55 34.5 °F /  1.4 °C 32.4 °F /  0.2 °C 29.41 in /  995.8 hPa NW 3.7 mph /  6 km/h 9.2 mph /  14.8 km/h 92 % 0.00 in /  0 mm
06:00 34.5 °F /  1.4 °C 32.4 °F /  0.2 °C 29.42 in /  996.2 hPa WNW 5.0 mph /  8 km/h 9.0 mph /  14.5 km/h 92 % 0.00 in /  0 mm
06:05 34.5 °F /  1.4 °C 32.4 °F /  0.2 °C 29.42 in /  996.2 hPa NW 2.1 mph /  3.4 km/h 5.8 mph /  9.3 km/h 92 % 0.00 in /  0 mm
06:10 34.5 °F /  1.4 °C 32.4 °F /  0.2 °C 29.42 in /  996.2 hPa NW 4.4 mph /  7.1 km/h 8.1 mph /  13 km/h 92 % 0.00 in /  0 mm
06:16 34.5 °F /  1.4 °C 32.4 °F /  0.2 °C 29.42 in /  996.2 hPa WNW 3.0 mph /  4.8 km/h 10.0 mph /  16.1 km/h 92 % 0.00 in /  0 mm
06:21 34.6 °F /  1.4 °C 32.5 °F /  0.3 °C 29.42 in /  996.2 hPa WNW 2.0 mph /  3.2 km/h 10.0 mph /  16.1 km/h 92 % 0.00 in /  0 mm
06:26 34.6 °F /  1.4 °C 32.5 °F /  0.3 °C 29.42 in /  996.2 hPa WNW 5.0 mph /  8 km/h 12.0 mph /  19.3 km/h 92 % 0.00 in /  0 mm
06:31 34.5 °F /  1.4 °C 32.4 °F /  0.2 °C 29.43 in /  996.5 hPa WNW 4.7 mph /  7.6 km/h 4.7 mph /  7.6 km/h 92 % 0.00 in /  0 mm
06:36 34.6 °F /  1.4 °C 32.5 °F /  0.3 °C 29.43 in /  996.5 hPa WNW 2.0 mph /  3.2 km/h 8.0 mph /  12.9 km/h 92 % 0.00 in /  0 mm
06:41 34.6 °F /  1.4 °C 32.5 °F /  0.3 °C 29.43 in /  996.5 hPa WNW 5.0 mph /  8 km/h 12.0 mph /  19.3 km/h 92 % 0.00 in /  0 mm
06:46 34.6 °F /  1.4 °C 32.5 °F /  0.3 °C 29.43 in /  996.5 hPa WNW 5.0 mph /  8 km/h 10.0 mph /  16.1 km/h 92 % 0.00 in /  0 mm
06:51 34.6 °F /  1.4 °C 32.2 °F /  0.1 °C 29.44 in /  996.8 hPa WNW 5.0 mph /  8 km/h 12.0 mph /  19.3 km/h 91 % 0.00 in /  0 mm
06:56 34.6 °F /  1.4 °C 32.2 °F /  0.1 °C 29.43 in /  996.5 hPa WNW 3.0 mph /  4.8 km/h 10.0 mph /  16.1 km/h 91 % 0.00 in /  0 mm
07:01 34.7 °F /  1.5 °C 32.3 °F /  0.2 °C 29.44 in /  996.8 hPa West 3.7 mph /  6 km/h 7.0 mph /  11.3 km/h 91 % 0.00 in /  0 mm
07:06 34.7 °F /  1.5 °C 32.3 °F /  0.2 °C 29.44 in /  996.8 hPa West 3.1 mph /  5 km/h 9.2 mph /  14.8 km/h 91 % 0.00 in /  0 mm
07:11 34.7 °F /  1.5 °C 32.3 °F /  0.2 °C 29.44 in /  996.8 hPa WNW 3.0 mph /  4.8 km/h 8.1 mph /  13 km/h 91 % 0.00 in /  0 mm
07:16 34.8 °F /  1.6 °C 32.4 °F /  0.2 °C 29.44 in /  996.8 hPa West 3.7 mph /  6 km/h 8.1 mph /  13 km/h 91 % 0.00 in /  0 mm
07:21 34.8 °F /  1.6 °C 32.7 °F /  0.4 °C 29.44 in /  996.8 hPa West 5.8 mph /  9.3 km/h 10.4 mph /  16.7 km/h 92 % 0.00 in /  0 mm
07:26 34.9 °F /  1.6 °C 32.5 °F /  0.3 °C 29.44 in /  996.8 hPa NW 3.5 mph /  5.6 km/h 8.1 mph /  13 km/h 91 % 0.00 in /  0 mm
07:31 35.0 °F /  1.7 °C 32.6 °F /  0.3 °C 29.44 in /  996.8 hPa NW 0.7 mph /  1.1 km/h 4.6 mph /  7.4 km/h 91 % 0.00 in /  0 mm
07:36 35.0 °F /  1.7 °C 32.6 °F /  0.3 °C 29.44 in /  996.8 hPa WNW 6.1 mph /  9.8 km/h 9.2 mph /  14.8 km/h 91 % 0.00 in /  0 mm
07:41 35.1 °F /  1.7 °C 32.7 °F /  0.4 °C 29.44 in /  996.8 hPa WSW 4.7 mph /  7.6 km/h 9.2 mph /  14.8 km/h 91 % 0.00 in /  0 mm
07:46 35.2 °F /  1.8 °C 32.8 °F /  0.4 °C 29.44 in /  996.8 hPa WNW 1.6 mph /  2.6 km/h 5.8 mph /  9.3 km/h 91 % 0.00 in /  0 mm
07:51 35.4 °F /  1.9 °C 33.0 °F /  0.6 °C 29.44 in /  996.8 hPa WSW 3.9 mph /  6.3 km/h 8.1 mph /  13 km/h 91 % 0.00 in /  0 mm
07:56 35.7 °F /  2.1 °C 33.3 °F /  0.7 °C 29.44 in /  996.8 hPa SW 2.6 mph /  4.2 km/h 4.0 mph /  6.4 km/h 91 % 0.00 in /  0 mm
08:01 36.1 °F /  2.3 °C 33.5 °F /  0.8 °C 29.45 in /  997.2 hPa NW 6.2 mph /  10 km/h 13.8 mph /  22.2 km/h 90 % 0.00 in /  0 mm
08:06 36.5 °F /  2.5 °C 33.8 °F /  1 °C 29.45 in /  997.2 hPa NW 6.3 mph /  10.1 km/h 8.1 mph /  13 km/h 90 % 0.00 in /  0 mm
08:11 36.8 °F /  2.7 °C 33.9 °F /  1.1 °C 29.45 in /  997.2 hPa WNW 4.8 mph /  7.7 km/h 8.1 mph /  13 km/h 89 % 0.00 in /  0 mm
08:16 37.1 °F /  2.8 °C 34.2 °F /  1.2 °C 29.45 in /  997.2 hPa NW 2.5 mph /  4 km/h 9.2 mph /  14.8 km/h 89 % 0.00 in /  0 mm
08:21 37.3 °F /  2.9 °C 34.1 °F /  1.2 °C 29.44 in /  996.8 hPa WNW 1.0 mph /  1.6 km/h 6.9 mph /  11.1 km/h 88 % 0.00 in /  0 mm
08:26 37.4 °F /  3 °C 33.9 °F /  1.1 °C 29.45 in /  997.2 hPa West 6.3 mph /  10.1 km/h 9.2 mph /  14.8 km/h 87 % 0.00 in /  0 mm
08:32 37.5 °F /  3.1 °C 33.7 °F /  0.9 °C 29.45 in /  997.2 hPa WNW 2.9 mph /  4.7 km/h 6.9 mph /  11.1 km/h 86 % 0.00 in /  0 mm
08:37 37.6 °F /  3.1 °C 33.8 °F /  1 °C 29.45 in /  997.2 hPa WNW 3.0 mph /  4.8 km/h 6.9 mph /  11.1 km/h 86 % 0.00 in /  0 mm
08:42 37.7 °F /  3.2 °C 33.9 °F /  1.1 °C 29.45 in /  997.2 hPa WNW 4.8 mph /  7.7 km/h 8.1 mph /  13 km/h 86 % 0.00 in /  0 mm
08:47 37.9 °F /  3.3 °C 34.1 °F /  1.2 °C 29.45 in /  997.2 hPa WNW 4.7 mph /  7.6 km/h 10.4 mph /  16.7 km/h 86 % 0.00 in /  0 mm
08:52 37.9 °F /  3.3 °C 33.8 °F /  1 °C 29.45 in /  997.2 hPa WNW 5.0 mph /  8 km/h 10.4 mph /  16.7 km/h 85 % 0.00 in /  0 mm
08:57 38.0 °F /  3.3 °C 33.9 °F /  1.1 °C 29.44 in /  996.8 hPa WNW 2.1 mph /  3.4 km/h 6.9 mph /  11.1 km/h 85 % 0.00 in /  0 mm
09:02 38.0 °F /  3.3 °C 33.9 °F /  1.1 °C 29.45 in /  997.2 hPa NW 6.0 mph /  9.7 km/h 9.2 mph /  14.8 km/h 85 % 0.00 in /  0 mm
09:07 38.2 °F /  3.4 °C 34.4 °F /  1.3 °C 29.44 in /  996.8 hPa NW 4.4 mph /  7.1 km/h 9.2 mph /  14.8 km/h 86 % 0.00 in /  0 mm
09:12 38.4 °F /  3.6 °C 34.3 °F /  1.3 °C 29.44 in /  996.8 hPa NW 5.6 mph /  9 km/h 11.5 mph /  18.5 km/h 85 % 0.00 in /  0 mm
09:17 38.5 °F /  3.6 °C 34.4 °F /  1.3 °C 29.44 in /  996.8 hPa West 5.1 mph /  8.2 km/h 6.0 mph /  9.7 km/h 85 % 0.00 in /  0 mm
09:22 38.8 °F /  3.8 °C 34.4 °F /  1.3 °C 29.44 in /  996.8 hPa NW 1.0 mph /  1.6 km/h 8.1 mph /  13 km/h 84 % 0.00 in /  0 mm
09:27 39.2 °F /  4 °C 34.8 °F /  1.6 °C 29.44 in /  996.8 hPa West 0.7 mph /  1.1 km/h 4.0 mph /  6.4 km/h 84 % 0.00 in /  0 mm
09:32 39.6 °F /  4.2 °C 34.9 °F /  1.6 °C 29.44 in /  996.8 hPa NW 0.7 mph /  1.1 km/h 10.4 mph /  16.7 km/h 83 % 0.00 in /  0 mm
09:37 40.2 °F /  4.6 °C 35.8 °F /  2.1 °C 29.44 in /  996.8 hPa WNW 4.8 mph /  7.7 km/h 9.0 mph /  14.5 km/h 84 % 0.00 in /  0 mm
09:42 40.5 °F /  4.7 °C 35.4 °F /  1.9 °C 29.45 in /  997.2 hPa WNW 2.4 mph /  3.9 km/h 8.1 mph /  13 km/h 82 % 0.00 in /  0 mm
09:47 40.7 °F /  4.8 °C 35.3 °F /  1.8 °C 29.45 in /  997.2 hPa WNW 1.9 mph /  3.1 km/h 5.8 mph /  9.3 km/h 81 % 0.00 in /  0 mm
09:52 40.8 °F /  4.9 °C 35.1 °F /  1.7 °C 29.44 in /  996.8 hPa NW 2.7 mph /  4.3 km/h 4.6 mph /  7.4 km/h 80 % 0.00 in /  0 mm
09:57 40.9 °F /  4.9 °C 34.9 °F /  1.6 °C 29.45 in /  997.2 hPa NW 4.5 mph /  7.2 km/h 8.1 mph /  13 km/h 79 % 0.00 in /  0 mm
10:02 41.0 °F /  5 °C 34.7 °F /  1.5 °C 29.44 in /  996.8 hPa NW 4.0 mph /  6.4 km/h 6.9 mph /  11.1 km/h 78 % 0.00 in /  0 mm
10:07 41.1 °F /  5.1 °C 34.8 °F /  1.6 °C 29.44 in /  996.8 hPa SW 3.7 mph /  6 km/h 6.9 mph /  11.1 km/h 78 % 0.00 in /  0 mm
10:13 41.4 °F /  5.2 °C 35.1 °F /  1.7 °C 29.44 in /  996.8 hPa NW 2.5 mph /  4 km/h 8.0 mph /  12.9 km/h 78 % 0.00 in /  0 mm
10:18 41.5 °F /  5.3 °C 34.5 °F /  1.4 °C 29.44 in /  996.8 hPa West 5.2 mph /  8.4 km/h 11.5 mph /  18.5 km/h 76 % 0.00 in /  0 mm
10:23 41.6 °F /  5.3 °C 34.9 °F /  1.6 °C 29.44 in /  996.8 hPa WSW 5.0 mph /  8 km/h 7.0 mph /  11.3 km/h 77 % 0.00 in /  0 mm
10:28 42.0 °F /  5.6 °C 35.0 °F /  1.7 °C 29.44 in /  996.8 hPa WNW 0.2 mph /  0.3 km/h 8.1 mph /  13 km/h 76 % 0.00 in /  0 mm
10:33 42.3 °F /  5.7 °C 34.9 °F /  1.6 °C 29.44 in /  996.8 hPa West 5.6 mph /  9 km/h 11.5 mph /  18.5 km/h 75 % 0.00 in /  0 mm
10:38 42.7 °F /  5.9 °C 35.0 °F /  1.7 °C 29.44 in /  996.8 hPa WNW 3.7 mph /  6 km/h 9.2 mph /  14.8 km/h 74 % 0.00 in /  0 mm
10:43 42.9 °F /  6.1 °C 34.8 °F /  1.6 °C 29.43 in /  996.5 hPa WSW 5.0 mph /  8 km/h 8.0 mph /  12.9 km/h 73 % 0.00 in /  0 mm
10:48 43.2 °F /  6.2 °C 34.8 °F /  1.6 °C 29.43 in /  996.5 hPa NNW 5.1 mph /  8.2 km/h 10.0 mph /  16.1 km/h 72 % 0.00 in /  0 mm
10:53 43.3 °F /  6.3 °C 34.9 °F /  1.6 °C 29.43 in /  996.5 hPa WNW 4.2 mph /  6.8 km/h 8.1 mph /  13 km/h 72 % 0.00 in /  0 mm
10:58 43.4 °F /  6.3 °C 34.6 °F /  1.4 °C 29.43 in /  996.5 hPa West 5.9 mph /  9.5 km/h 10.4 mph /  16.7 km/h 71 % 0.00 in /  0 mm
11:03 43.8 °F /  6.6 °C 35.0 °F /  1.7 °C 29.43 in /  996.5 hPa WSW 3.5 mph /  5.6 km/h 4.6 mph /  7.4 km/h 71 % 0.00 in /  0 mm
11:08 44.2 °F /  6.8 °C 35.7 °F /  2.1 °C 29.43 in /  996.5 hPa WNW 2.2 mph /  3.5 km/h 4.0 mph /  6.4 km/h 72 % 0.00 in /  0 mm
11:13 44.2 °F /  6.8 °C 35.0 °F /  1.7 °C 29.43 in /  996.5 hPa West 4.1 mph /  6.6 km/h 9.0 mph /  14.5 km/h 70 % 0.00 in /  0 mm
11:18 44.3 °F /  6.8 °C 35.1 °F /  1.7 °C 29.43 in /  996.5 hPa WSW 4.3 mph /  6.9 km/h 9.0 mph /  14.5 km/h 70 % 0.00 in /  0 mm
11:23 44.7 °F /  7.1 °C 35.5 °F /  1.9 °C 29.43 in /  996.5 hPa WSW 4.3 mph /  6.9 km/h 6.0 mph /  9.7 km/h 70 % 0.00 in /  0 mm
11:28 45.1 °F /  7.3 °C 35.9 °F /  2.2 °C 29.43 in /  996.5 hPa SW 7.3 mph /  11.7 km/h 10.4 mph /  16.7 km/h 70 % 0.00 in /  0 mm
11:33 45.2 °F /  7.3 °C 36.0 °F /  2.2 °C 29.43 in /  996.5 hPa WSW 2.1 mph /  3.4 km/h 3.5 mph /  5.6 km/h 70 % 0.00 in /  0 mm
11:38 45.4 °F /  7.4 °C 35.8 °F /  2.1 °C 29.42 in /  996.2 hPa West 1.4 mph /  2.3 km/h 10.0 mph /  16.1 km/h 69 % 0.00 in /  0 mm
11:43 45.5 °F /  7.5 °C 35.9 °F /  2.2 °C 29.42 in /  996.2 hPa WSW 5.0 mph /  8 km/h 5.8 mph /  9.3 km/h 69 % 0.00 in /  0 mm
11:49 45.4 °F /  7.4 °C 35.8 °F /  2.1 °C 29.42 in /  996.2 hPa West 2.4 mph /  3.9 km/h 5.8 mph /  9.3 km/h 69 % 0.00 in /  0 mm
11:54 45.0 °F /  7.2 °C 35.4 °F /  1.9 °C 29.42 in /  996.2 hPa WNW 3.4 mph /  5.5 km/h 6.9 mph /  11.1 km/h 69 % 0.00 in /  0 mm
11:59 44.6 °F /  7 °C 34.7 °F /  1.5 °C 29.42 in /  996.2 hPa West 7.1 mph /  11.4 km/h 10.4 mph /  16.7 km/h 68 % 0.00 in /  0 mm
12:04 44.6 °F /  7 °C 35.1 °F /  1.7 °C 29.42 in /  996.2 hPa WNW 3.4 mph /  5.5 km/h 8.1 mph /  13 km/h 69 % 0.00 in /  0 mm
12:09 44.8 °F /  7.1 °C 35.2 °F /  1.8 °C 29.41 in /  995.8 hPa WSW 2.4 mph /  3.9 km/h 10.4 mph /  16.7 km/h 69 % 0.00 in /  0 mm
12:14 45.1 °F /  7.3 °C 35.9 °F /  2.2 °C 29.41 in /  995.8 hPa WSW 5.5 mph /  8.9 km/h 10.4 mph /  16.7 km/h 70 % 0.00 in /  0 mm
12:19 45.3 °F /  7.4 °C 36.1 °F /  2.3 °C 29.41 in /  995.8 hPa West 7.3 mph /  11.7 km/h 11.5 mph /  18.5 km/h 70 % 0.00 in /  0 mm
12:24 45.4 °F /  7.4 °C 35.8 °F /  2.1 °C 29.41 in /  995.8 hPa West 5.1 mph /  8.2 km/h 8.1 mph /  13 km/h 69 % 0.00 in /  0 mm
12:29 45.6 °F /  7.6 °C 36.0 °F /  2.2 °C 29.41 in /  995.8 hPa West 3.9 mph /  6.3 km/h 8.0 mph /  12.9 km/h 69 % 0.00 in /  0 mm
12:34 45.5 °F /  7.5 °C 35.5 °F /  1.9 °C 29.41 in /  995.8 hPa SW 7.0 mph /  11.3 km/h 11.5 mph /  18.5 km/h 68 % 0.00 in /  0 mm
12:39 44.8 °F /  7.1 °C 34.5 °F /  1.4 °C 29.40 in /  995.5 hPa West 8.7 mph /  14 km/h 11.5 mph /  18.5 km/h 67 % 0.00 in /  0 mm
12:44 44.4 °F /  6.9 °C 34.9 °F /  1.6 °C 29.40 in /  995.5 hPa WNW 6.7 mph /  10.8 km/h 10.0 mph /  16.1 km/h 69 % 0.00 in /  0 mm
12:49 44.6 °F /  7 °C 35.8 °F /  2.1 °C 29.40 in /  995.5 hPa NW 2.5 mph /  4 km/h 6.0 mph /  9.7 km/h 71 % 0.00 in /  0 mm
12:54 44.9 °F /  7.2 °C 35.7 °F /  2.1 °C 29.40 in /  995.5 hPa WNW 2.7 mph /  4.3 km/h 3.5 mph /  5.6 km/h 70 % 0.00 in /  0 mm
12:59 44.9 °F /  7.2 °C 35.0 °F /  1.7 °C 29.40 in /  995.5 hPa WSW 5.4 mph /  8.7 km/h 9.2 mph /  14.8 km/h 68 % 0.00 in /  0 mm
13:04 45.2 °F /  7.3 °C 35.6 °F /  2 °C 29.39 in /  995.1 hPa West 2.2 mph /  3.5 km/h 4.6 mph /  7.4 km/h 69 % 0.00 in /  0 mm
13:09 45.7 °F /  7.6 °C 35.7 °F /  2.1 °C 29.39 in /  995.1 hPa WNW 6.6 mph /  10.6 km/h 11.5 mph /  18.5 km/h 68 % 0.00 in /  0 mm
13:14 45.8 °F /  7.7 °C 35.8 °F /  2.1 °C 29.39 in /  995.1 hPa West 6.1 mph /  9.8 km/h 9.2 mph /  14.8 km/h 68 % 0.00 in /  0 mm
13:19 45.9 °F /  7.7 °C 35.2 °F /  1.8 °C 29.39 in /  995.1 hPa West 1.3 mph /  2.1 km/h 3.5 mph /  5.6 km/h 66 % 0.00 in /  0 mm
13:24 45.6 °F /  7.6 °C 33.7 °F /  0.9 °C 29.39 in /  995.1 hPa WNW 5.6 mph /  9 km/h 9.2 mph /  14.8 km/h 63 % 0.00 in /  0 mm
13:29 45.2 °F /  7.3 °C 34.1 °F /  1.2 °C 29.39 in /  995.1 hPa WNW 6.8 mph /  10.9 km/h 7.0 mph /  11.3 km/h 65 % 0.00 in /  0 mm
13:35 44.6 °F /  7 °C 33.9 °F /  1.1 °C 29.40 in /  995.5 hPa West 8.0 mph /  12.9 km/h 11.5 mph /  18.5 km/h 66 % 0.00 in /  0 mm
13:40 44.0 °F /  6.7 °C 33.7 °F /  0.9 °C 29.39 in /  995.1 hPa West 8.7 mph /  14 km/h 14.0 mph /  22.5 km/h 67 % 0.00 in /  0 mm
13:45 43.4 °F /  6.3 °C 33.9 °F /  1.1 °C 29.39 in /  995.1 hPa SW 7.0 mph /  11.3 km/h 11.5 mph /  18.5 km/h 69 % 0.00 in /  0 mm
13:50 43.0 °F /  6.1 °C 33.9 °F /  1.1 °C 29.39 in /  995.1 hPa WNW 6.6 mph /  10.6 km/h 11.5 mph /  18.5 km/h 70 % 0.00 in /  0 mm
13:55 42.8 °F /  6 °C 33.7 °F /  0.9 °C 29.39 in /  995.1 hPa SSW 4.4 mph /  7.1 km/h 10.4 mph /  16.7 km/h 70 % 0.00 in /  0 mm
14:00 42.5 °F /  5.8 °C 33.8 °F /  1 °C 29.39 in /  995.1 hPa West 3.4 mph /  5.5 km/h 8.1 mph /  13 km/h 71 % 0.00 in /  0 mm
14:05 42.3 °F /  5.7 °C 33.6 °F /  0.9 °C 29.39 in /  995.1 hPa SW 3.4 mph /  5.5 km/h 5.8 mph /  9.3 km/h 71 % 0.00 in /  0 mm
14:10 42.2 °F /  5.7 °C 33.8 °F /  1 °C 29.39 in /  995.1 hPa WSW 2.7 mph /  4.3 km/h 4.6 mph /  7.4 km/h 72 % 0.00 in /  0 mm
14:15 42.1 °F /  5.6 °C 33.4 °F /  0.8 °C 29.39 in /  995.1 hPa WNW 7.7 mph /  12.4 km/h 11.5 mph /  18.5 km/h 71 % 0.00 in /  0 mm
14:20 41.8 °F /  5.4 °C 32.7 °F /  0.4 °C 29.39 in /  995.1 hPa WNW 7.5 mph /  12.1 km/h 11.5 mph /  18.5 km/h 70 % 0.00 in /  0 mm
14:25 41.6 °F /  5.3 °C 32.5 °F /  0.3 °C 29.39 in /  995.1 hPa WSW 5.4 mph /  8.7 km/h 8.1 mph /  13 km/h 70 % 0.00 in /  0 mm
14:30 41.5 °F /  5.3 °C 32.4 °F /  0.2 °C 29.39 in /  995.1 hPa West 5.3 mph /  8.5 km/h 11.5 mph /  18.5 km/h 70 % 0.00 in /  0 mm
14:35 41.6 °F /  5.3 °C 32.5 °F /  0.3 °C 29.39 in /  995.1 hPa WNW 2.6 mph /  4.2 km/h 12.7 mph /  20.4 km/h 70 % 0.00 in /  0 mm
14:40 41.8 °F /  5.4 °C 32.4 °F /  0.2 °C 29.39 in /  995.1 hPa WSW 4.0 mph /  6.4 km/h 10.4 mph /  16.7 km/h 69 % 0.00 in /  0 mm
14:45 41.7 °F /  5.4 °C 32.3 °F /  0.2 °C 29.39 in /  995.1 hPa West 3.3 mph /  5.3 km/h 11.5 mph /  18.5 km/h 69 % 0.00 in /  0 mm
14:50 41.7 °F /  5.4 °C 33.0 °F /  0.6 °C 29.39 in /  995.1 hPa SW 1.2 mph /  1.9 km/h 6.0 mph /  9.7 km/h 71 % 0.00 in /  0 mm
14:55 41.6 °F /  5.3 °C 32.5 °F /  0.3 °C 29.40 in /  995.5 hPa WNW 4.6 mph /  7.4 km/h 6.9 mph /  11.1 km/h 70 % 0.00 in /  0 mm
15:01 41.5 °F /  5.3 °C 32.4 °F /  0.2 °C 29.40 in /  995.5 hPa West 5.3 mph /  8.5 km/h 11.5 mph /  18.5 km/h 70 % 0.00 in /  0 mm
15:06 41.4 °F /  5.2 °C 32.3 °F /  0.2 °C 29.40 in /  995.5 hPa SW 3.7 mph /  6 km/h 6.9 mph /  11.1 km/h 70 % 0.00 in /  0 mm
15:11 41.1 °F /  5.1 °C 32.1 °F /  0.1 °C 29.40 in /  995.5 hPa WSW 5.6 mph /  9 km/h 11.5 mph /  18.5 km/h 70 % 0.00 in /  0 mm
15:16 41.0 °F /  5 °C 32.3 °F /  0.2 °C 29.39 in /  995.1 hPa SW 1.7 mph /  2.7 km/h 3.5 mph /  5.6 km/h 71 % 0.00 in /  0 mm
15:21 40.9 °F /  4.9 °C 32.2 °F /  0.1 °C 29.40 in /  995.5 hPa WSW 3.5 mph /  5.6 km/h 11.5 mph /  18.5 km/h 71 % 0.00 in /  0 mm
15:26 40.9 °F /  4.9 °C 32.2 °F /  0.1 °C 29.40 in /  995.5 hPa WSW 5.6 mph /  9 km/h 11.5 mph /  18.5 km/h 71 % 0.00 in /  0 mm
15:31 40.8 °F /  4.9 °C 31.8 °F /  -0.1 °C 29.40 in /  995.5 hPa West 6.6 mph /  10.6 km/h 11.5 mph /  18.5 km/h 70 % 0.00 in /  0 mm
15:36 40.7 °F /  4.8 °C 31.7 °F /  -0.2 °C 29.40 in /  995.5 hPa WSW 6.9 mph /  11.1 km/h 13.8 mph /  22.2 km/h 70 % 0.00 in /  0 mm
15:41 40.6 °F /  4.8 °C 31.6 °F /  -0.2 °C 29.40 in /  995.5 hPa West 6.8 mph /  10.9 km/h 9.2 mph /  14.8 km/h 70 % 0.00 in /  0 mm
15:46 40.3 °F /  4.6 °C 31.3 °F /  -0.4 °C 29.40 in /  995.5 hPa West 4.3 mph /  6.9 km/h 9.2 mph /  14.8 km/h 70 % 0.00 in /  0 mm
15:51 40.2 °F /  4.6 °C 31.2 °F /  -0.4 °C 29.40 in /  995.5 hPa WSW 3.7 mph /  6 km/h 9.2 mph /  14.8 km/h 70 % 0.00 in /  0 mm
15:56 40.0 °F /  4.4 °C 31.0 °F /  -0.6 °C 29.40 in /  995.5 hPa WSW 3.1 mph /  5 km/h 7.0 mph /  11.3 km/h 70 % 0.00 in /  0 mm
16:01 40.0 °F /  4.4 °C 30.6 °F /  -0.8 °C 29.40 in /  995.5 hPa WSW 3.9 mph /  6.3 km/h 8.1 mph /  13 km/h 69 % 0.00 in /  0 mm
16:06 39.9 °F /  4.4 °C 30.5 °F /  -0.8 °C 29.41 in /  995.8 hPa WSW 5.6 mph /  9 km/h 10.4 mph /  16.7 km/h 69 % 0.00 in /  0 mm
16:11 39.8 °F /  4.3 °C 30.5 °F /  -0.8 °C 29.41 in /  995.8 hPa WSW 4.9 mph /  7.9 km/h 5.8 mph /  9.3 km/h 69 % 0.00 in /  0 mm
16:16 39.8 °F /  4.3 °C 30.5 °F /  -0.8 °C 29.40 in /  995.5 hPa WSW 2.6 mph /  4.2 km/h 6.9 mph /  11.1 km/h 69 % 0.00 in /  0 mm
16:22 39.8 °F /  4.3 °C 30.5 °F /  -0.8 °C 29.41 in /  995.8 hPa WSW 3.7 mph /  6 km/h 8.0 mph /  12.9 km/h 69 % 0.00 in /  0 mm
16:27 39.8 °F /  4.3 °C 30.1 °F /  -1.1 °C 29.41 in /  995.8 hPa West 4.7 mph /  7.6 km/h 8.1 mph /  13 km/h 68 % 0.00 in /  0 mm
16:32 39.7 °F /  4.3 °C 29.6 °F /  -1.3 °C 29.41 in /  995.8 hPa WSW 4.8 mph /  7.7 km/h 7.0 mph /  11.3 km/h 67 % 0.00 in /  0 mm
16:37 39.7 °F /  4.3 °C 29.6 °F /  -1.3 °C 29.41 in /  995.8 hPa West 6.4 mph /  10.3 km/h 10.4 mph /  16.7 km/h 67 % 0.00 in /  0 mm
16:42 39.6 °F /  4.2 °C 29.5 °F /  -1.4 °C 29.41 in /  995.8 hPa WSW 5.0 mph /  8 km/h 9.2 mph /  14.8 km/h 67 % 0.00 in /  0 mm
16:47 39.6 °F /  4.2 °C 29.9 °F /  -1.2 °C 29.41 in /  995.8 hPa WNW 4.1 mph /  6.6 km/h 9.2 mph /  14.8 km/h 68 % 0.00 in /  0 mm
16:52 39.6 °F /  4.2 °C 29.9 °F /  -1.2 °C 29.41 in /  995.8 hPa NW 3.7 mph /  6 km/h 6.0 mph /  9.7 km/h 68 % 0.00 in /  0 mm
16:57 39.5 °F /  4.2 °C 29.8 °F /  -1.2 °C 29.41 in /  995.8 hPa WNW 2.4 mph /  3.9 km/h 8.1 mph /  13 km/h 68 % 0.00 in /  0 mm
17:02 39.5 °F /  4.2 °C 30.2 °F /  -1 °C 29.42 in /  996.2 hPa WNW 2.0 mph /  3.2 km/h 4.6 mph /  7.4 km/h 69 % 0.00 in /  0 mm
17:07 39.4 °F /  4.1 °C 30.1 °F /  -1.1 °C 29.42 in /  996.2 hPa SW 5.8 mph /  9.3 km/h 10.4 mph /  16.7 km/h 69 % 0.00 in /  0 mm
17:12 39.3 °F /  4.1 °C 30.0 °F /  -1.1 °C 29.42 in /  996.2 hPa West 6.4 mph /  10.3 km/h 11.5 mph /  18.5 km/h 69 % 0.00 in /  0 mm
17:17 39.3 °F /  4.1 °C 30.0 °F /  -1.1 °C 29.42 in /  996.2 hPa WNW 3.9 mph /  6.3 km/h 7.0 mph /  11.3 km/h 69 % 0.00 in /  0 mm
17:22 39.2 °F /  4 °C 29.9 °F /  -1.2 °C 29.42 in /  996.2 hPa WNW 3.8 mph /  6.1 km/h 4.6 mph /  7.4 km/h 69 % 0.00 in /  0 mm
17:27 39.1 °F /  3.9 °C 30.1 °F /  -1.1 °C 29.42 in /  996.2 hPa West 3.7 mph /  6 km/h 9.2 mph /  14.8 km/h 70 % 0.00 in /  0 mm
17:32 39.0 °F /  3.9 °C 29.7 °F /  -1.3 °C 29.42 in /  996.2 hPa WNW 4.2 mph /  6.8 km/h 6.9 mph /  11.1 km/h 69 % 0.00 in /  0 mm
17:37 38.9 °F /  3.8 °C 29.6 °F /  -1.3 °C 29.42 in /  996.2 hPa West 5.9 mph /  9.5 km/h 6.9 mph /  11.1 km/h 69 % 0.00 in /  0 mm
17:42 38.9 °F /  3.8 °C 29.2 °F /  -1.6 °C 29.42 in /  996.2 hPa SW 2.9 mph /  4.7 km/h 7.0 mph /  11.3 km/h 68 % 0.00 in /  0 mm
17:47 38.8 °F /  3.8 °C 29.1 °F /  -1.6 °C 29.42 in /  996.2 hPa West 6.3 mph /  10.1 km/h 11.5 mph /  18.5 km/h 68 % 0.00 in /  0 mm
17:52 38.7 °F /  3.7 °C 29.0 °F /  -1.7 °C 29.42 in /  996.2 hPa WSW 6.8 mph /  10.9 km/h 11.5 mph /  18.5 km/h 68 % 0.00 in /  0 mm
17:57 38.7 °F /  3.7 °C 29.0 °F /  -1.7 °C 29.43 in /  996.5 hPa WSW 4.5 mph /  7.2 km/h 10.4 mph /  16.7 km/h 68 % 0.00 in /  0 mm
18:03 38.6 °F /  3.7 °C 28.9 °F /  -1.7 °C 29.42 in /  996.2 hPa WSW 4.5 mph /  7.2 km/h 8.1 mph /  13 km/h 68 % 0.00 in /  0 mm
18:08 38.6 °F /  3.7 °C 28.6 °F /  -1.9 °C 29.43 in /  996.5 hPa West 5.7 mph /  9.2 km/h 5.8 mph /  9.3 km/h 67 % 0.00 in /  0 mm
18:13 38.6 °F /  3.7 °C 28.9 °F /  -1.7 °C 29.43 in /  996.5 hPa WSW 1.7 mph /  2.7 km/h 3.5 mph /  5.6 km/h 68 % 0.00 in /  0 mm
18:18 38.5 °F /  3.6 °C 28.9 °F /  -1.7 °C 29.44 in /  996.8 hPa NW 3.8 mph /  6.1 km/h 6.9 mph /  11.1 km/h 68 % 0.00 in /  0 mm
18:23 38.5 °F /  3.6 °C 28.5 °F /  -1.9 °C 29.43 in /  996.5 hPa WSW 4.9 mph /  7.9 km/h 10.4 mph /  16.7 km/h 67 % 0.00 in /  0 mm
18:28 38.4 °F /  3.6 °C 28.0 °F /  -2.2 °C 29.44 in /  996.8 hPa West 4.3 mph /  6.9 km/h 9.0 mph /  14.5 km/h 66 % 0.00 in /  0 mm
18:33 38.4 °F /  3.6 °C 27.3 °F /  -2.6 °C 29.44 in /  996.8 hPa WSW 6.5 mph /  10.5 km/h 10.4 mph /  16.7 km/h 64 % 0.00 in /  0 mm
18:38 38.3 °F /  3.5 °C 27.2 °F /  -2.7 °C 29.44 in /  996.8 hPa WSW 4.2 mph /  6.8 km/h 10.4 mph /  16.7 km/h 64 % 0.00 in /  0 mm
18:43 38.3 °F /  3.5 °C 27.2 °F /  -2.7 °C 29.44 in /  996.8 hPa West 4.2 mph /  6.8 km/h 8.1 mph /  13 km/h 64 % 0.00 in /  0 mm
18:48 38.3 °F /  3.5 °C 27.2 °F /  -2.7 °C 29.44 in /  996.8 hPa WSW 6.7 mph /  10.8 km/h 10.4 mph /  16.7 km/h 64 % 0.00 in /  0 mm
18:53 38.2 °F /  3.4 °C 27.1 °F /  -2.7 °C 29.44 in /  996.8 hPa WSW 0.4 mph /  0.6 km/h 3.5 mph /  5.6 km/h 64 % 0.00 in /  0 mm
18:58 38.2 °F /  3.4 °C 27.1 °F /  -2.7 °C 29.44 in /  996.8 hPa WNW 2.9 mph /  4.7 km/h 5.8 mph /  9.3 km/h 64 % 0.00 in /  0 mm
19:03 38.2 °F /  3.4 °C 27.1 °F /  -2.7 °C 29.44 in /  996.8 hPa WNW 3.7 mph /  6 km/h 5.0 mph /  8 km/h 64 % 0.00 in /  0 mm
19:08 38.1 °F /  3.4 °C 27.0 °F /  -2.8 °C 29.45 in /  997.2 hPa WSW 3.5 mph /  5.6 km/h 4.6 mph /  7.4 km/h 64 % 0.00 in /  0 mm
19:13 38.0 °F /  3.3 °C 26.9 °F /  -2.8 °C 29.45 in /  997.2 hPa West 3.3 mph /  5.3 km/h 11.5 mph /  18.5 km/h 64 % 0.00 in /  0 mm
19:19 38.0 °F /  3.3 °C 26.9 °F /  -2.8 °C 29.45 in /  997.2 hPa West 6.7 mph /  10.8 km/h 11.5 mph /  18.5 km/h 64 % 0.00 in /  0 mm
19:24 38.0 °F /  3.3 °C 26.9 °F /  -2.8 °C 29.45 in /  997.2 hPa NW 3.6 mph /  5.8 km/h 8.0 mph /  12.9 km/h 64 % 0.00 in /  0 mm
19:29 38.0 °F /  3.3 °C 27.3 °F /  -2.6 °C 29.45 in /  997.2 hPa West 6.1 mph /  9.8 km/h 10.0 mph /  16.1 km/h 65 % 0.00 in /  0 mm
19:34 37.9 °F /  3.3 °C 26.8 °F /  -2.9 °C 29.45 in /  997.2 hPa West 3.8 mph /  6.1 km/h 10.4 mph /  16.7 km/h 64 % 0.00 in /  0 mm
19:39 37.9 °F /  3.3 °C 27.2 °F /  -2.7 °C 29.45 in /  997.2 hPa WSW 4.4 mph /  7.1 km/h 8.1 mph /  13 km/h 65 % 0.00 in /  0 mm
19:44 37.8 °F /  3.2 °C 27.1 °F /  -2.7 °C 29.45 in /  997.2 hPa West 3.8 mph /  6.1 km/h 6.0 mph /  9.7 km/h 65 % 0.00 in /  0 mm
19:49 37.7 °F /  3.2 °C 27.4 °F /  -2.6 °C 29.45 in /  997.2 hPa WNW 5.0 mph /  8 km/h 8.1 mph /  13 km/h 66 % 0.00 in /  0 mm
19:54 37.7 °F /  3.2 °C 27.4 °F /  -2.6 °C 29.45 in /  997.2 hPa West 1.8 mph /  2.9 km/h 3.5 mph /  5.6 km/h 66 % 0.00 in /  0 mm
19:59 37.6 °F /  3.1 °C 27.3 °F /  -2.6 °C 29.45 in /  997.2 hPa WSW 4.2 mph /  6.8 km/h 5.8 mph /  9.3 km/h 66 % 0.00 in /  0 mm
20:04 37.5 °F /  3.1 °C 27.2 °F /  -2.7 °C 29.45 in /  997.2 hPa WNW 3.8 mph /  6.1 km/h 8.0 mph /  12.9 km/h 66 % 0.00 in /  0 mm
20:09 37.5 °F /  3.1 °C 27.2 °F /  -2.7 °C 29.46 in /  997.5 hPa WNW 1.8 mph /  2.9 km/h 6.9 mph /  11.1 km/h 66 % 0.00 in /  0 mm
20:14 37.4 °F /  3 °C 27.1 °F /  -2.7 °C 29.45 in /  997.2 hPa West 5.7 mph /  9.2 km/h 9.2 mph /  14.8 km/h 66 % 0.00 in /  0 mm
20:19 37.3 °F /  2.9 °C 27.0 °F /  -2.8 °C 29.45 in /  997.2 hPa WNW 6.0 mph /  9.7 km/h 10.4 mph /  16.7 km/h 66 % 0.00 in /  0 mm
20:24 37.2 °F /  2.9 °C 27.2 °F /  -2.7 °C 29.46 in /  997.5 hPa WNW 3.6 mph /  5.8 km/h 6.0 mph /  9.7 km/h 67 % 0.00 in /  0 mm
20:29 37.2 °F /  2.9 °C 27.6 °F /  -2.4 °C 29.45 in /  997.2 hPa WSW 2.1 mph /  3.4 km/h 5.0 mph /  8 km/h 68 % 0.00 in /  0 mm
20:34 37.1 °F /  2.8 °C 28.2 °F /  -2.1 °C 29.45 in /  997.2 hPa WSW 3.7 mph /  6 km/h 4.6 mph /  7.4 km/h 70 % 0.00 in /  0 mm
20:39 37.0 °F /  2.8 °C 28.1 °F /  -2.2 °C 29.45 in /  997.2 hPa West 2.4 mph /  3.9 km/h 5.8 mph /  9.3 km/h 70 % 0.00 in /  0 mm
20:44 36.9 °F /  2.7 °C 28.0 °F /  -2.2 °C 29.45 in /  997.2 hPa WSW 2.5 mph /  4 km/h 6.0 mph /  9.7 km/h 70 % 0.00 in /  0 mm
20:50 36.8 °F /  2.7 °C 28.3 °F /  -2.1 °C 29.45 in /  997.2 hPa WNW 4.4 mph /  7.1 km/h 5.8 mph /  9.3 km/h 71 % 0.00 in /  0 mm
20:55 36.7 °F /  2.6 °C 28.2 °F /  -2.1 °C 29.45 in /  997.2 hPa West 1.1 mph /  1.8 km/h 5.8 mph /  9.3 km/h 71 % 0.00 in /  0 mm
21:00 36.6 °F /  2.6 °C 27.7 °F /  -2.4 °C 29.45 in /  997.2 hPa WSW 2.5 mph /  4 km/h 5.8 mph /  9.3 km/h 70 % 0.00 in /  0 mm
21:05 36.5 °F /  2.5 °C 27.6 °F /  -2.4 °C 29.45 in /  997.2 hPa West 2.9 mph /  4.7 km/h 9.2 mph /  14.8 km/h 70 % 0.00 in /  0 mm
21:10 36.5 °F /  2.5 °C 27.6 °F /  -2.4 °C 29.46 in /  997.5 hPa West 1.9 mph /  3.1 km/h 6.0 mph /  9.7 km/h 70 % 0.00 in /  0 mm
21:15 36.4 °F /  2.4 °C 27.5 °F /  -2.5 °C 29.45 in /  997.2 hPa West 5.1 mph /  8.2 km/h 8.1 mph /  13 km/h 70 % 0.00 in /  0 mm
21:20 36.4 °F /  2.4 °C 27.9 °F /  -2.3 °C 29.45 in /  997.2 hPa SW 6.2 mph /  10 km/h 8.1 mph /  13 km/h 71 % 0.00 in /  0 mm
21:25 36.3 °F /  2.4 °C 28.1 °F /  -2.2 °C 29.45 in /  997.2 hPa SW 4.1 mph /  6.6 km/h 9.2 mph /  14.8 km/h 72 % 0.00 in /  0 mm
21:30 36.3 °F /  2.4 °C 28.5 °F /  -1.9 °C 29.45 in /  997.2 hPa West 5.4 mph /  8.7 km/h 9.2 mph /  14.8 km/h 73 % 0.00 in /  0 mm
21:35 36.3 °F /  2.4 °C 28.5 °F /  -1.9 °C 29.45 in /  997.2 hPa WSW 1.9 mph /  3.1 km/h 5.0 mph /  8 km/h 73 % 0.00 in /  0 mm
21:40 36.3 °F /  2.4 °C 28.8 °F /  -1.8 °C 29.44 in /  996.8 hPa West 3.7 mph /  6 km/h 8.1 mph /  13 km/h 74 % 0.00 in /  0 mm
21:45 36.3 °F /  2.4 °C 28.8 °F /  -1.8 °C 29.45 in /  997.2 hPa WSW 4.1 mph /  6.6 km/h 6.9 mph /  11.1 km/h 74 % 0.00 in /  0 mm
21:50 36.3 °F /  2.4 °C 28.8 °F /  -1.8 °C 29.45 in /  997.2 hPa West 6.6 mph /  10.6 km/h 10.4 mph /  16.7 km/h 74 % 0.00 in /  0 mm
21:55 36.3 °F /  2.4 °C 28.8 °F /  -1.8 °C 29.44 in /  996.8 hPa SSW 5.8 mph /  9.3 km/h 8.1 mph /  13 km/h 74 % 0.00 in /  0 mm
22:00 36.2 °F /  2.3 °C 28.7 °F /  -1.8 °C 29.44 in /  996.8 hPa WNW 6.0 mph /  9.7 km/h 10.4 mph /  16.7 km/h 74 % 0.00 in /  0 mm
22:05 36.2 °F /  2.3 °C 28.7 °F /  -1.8 °C 29.44 in /  996.8 hPa WNW 5.6 mph /  9 km/h 9.2 mph /  14.8 km/h 74 % 0.00 in /  0 mm
22:10 36.1 °F /  2.3 °C 28.6 °F /  -1.9 °C 29.44 in /  996.8 hPa WSW 5.0 mph /  8 km/h 12.0 mph /  19.3 km/h 74 % 0.00 in /  0 mm
22:15 36.1 °F /  2.3 °C 28.3 °F /  -2.1 °C 29.44 in /  996.8 hPa WSW 2.0 mph /  3.2 km/h 9.0 mph /  14.5 km/h 73 % 0.00 in /  0 mm
22:16 36.2 °F /  2.3 °C 28.4 °F /  -2 °C 29.44 in /  996.8 hPa WNW 5.9 mph /  9.5 km/h 9.2 mph /  14.8 km/h 73 % 0.00 in /  0 mm
22:21 36.1 °F /  2.3 °C 28.3 °F /  -2.1 °C 29.44 in /  996.8 hPa West 1.0 mph /  1.6 km/h 5.8 mph /  9.3 km/h 73 % 0.00 in /  0 mm
22:26 36.1 °F /  2.3 °C 28.3 °F /  -2.1 °C 29.44 in /  996.8 hPa WNW 5.2 mph /  8.4 km/h 11.5 mph /  18.5 km/h 73 % 0.00 in /  0 mm
22:31 36.1 °F /  2.3 °C 27.9 °F /  -2.3 °C 29.44 in /  996.8 hPa WNW 5.3 mph /  8.5 km/h 11.5 mph /  18.5 km/h 72 % 0.00 in /  0 mm
22:37 36.1 °F /  2.3 °C 27.6 °F /  -2.4 °C 29.43 in /  996.5 hPa WSW 4.8 mph /  7.7 km/h 10.4 mph /  16.7 km/h 71 % 0.00 in /  0 mm
22:42 36.0 °F /  2.2 °C 27.8 °F /  -2.3 °C 29.43 in /  996.5 hPa West 8.0 mph /  12.9 km/h 13.8 mph /  22.2 km/h 72 % 0.00 in /  0 mm
22:47 36.0 °F /  2.2 °C 27.5 °F /  -2.5 °C 29.43 in /  996.5 hPa WSW 3.2 mph /  5.1 km/h 9.2 mph /  14.8 km/h 71 % 0.00 in /  0 mm
22:52 36.0 °F /  2.2 °C 27.5 °F /  -2.5 °C 29.43 in /  996.5 hPa WSW 6.1 mph /  9.8 km/h 10.4 mph /  16.7 km/h 71 % 0.00 in /  0 mm
22:57 35.9 °F /  2.2 °C 27.4 °F /  -2.6 °C 29.43 in /  996.5 hPa WNW 3.2 mph /  5.1 km/h 8.1 mph /  13 km/h 71 % 0.00 in /  0 mm
23:02 35.9 °F /  2.2 °C 27.7 °F /  -2.4 °C 29.43 in /  996.5 hPa WSW 6.8 mph /  10.9 km/h 11.5 mph /  18.5 km/h 72 % 0.00 in /  0 mm
23:07 35.9 °F /  2.2 °C 27.7 °F /  -2.4 °C 29.42 in /  996.2 hPa West 7.1 mph /  11.4 km/h 9.2 mph /  14.8 km/h 72 % 0.00 in /  0 mm
23:12 35.8 °F /  2.1 °C 27.7 °F /  -2.4 °C 29.42 in /  996.2 hPa West 1.7 mph /  2.7 km/h 9.0 mph /  14.5 km/h 72 % 0.00 in /  0 mm
23:17 35.7 °F /  2.1 °C 27.6 °F /  -2.4 °C 29.42 in /  996.2 hPa West 3.3 mph /  5.3 km/h 10.4 mph /  16.7 km/h 72 % 0.00 in /  0 mm
23:22 35.7 °F /  2.1 °C 27.9 °F /  -2.3 °C 29.42 in /  996.2 hPa West 2.5 mph /  4 km/h 5.8 mph /  9.3 km/h 73 % 0.00 in /  0 mm
23:27 35.6 °F /  2 °C 27.8 °F /  -2.3 °C 29.42 in /  996.2 hPa WSW 3.7 mph /  6 km/h 8.1 mph /  13 km/h 73 % 0.00 in /  0 mm
23:32 35.5 °F /  1.9 °C 27.7 °F /  -2.4 °C 29.42 in /  996.2 hPa NW 4.4 mph /  7.1 km/h 6.0 mph /  9.7 km/h 73 % 0.00 in /  0 mm
23:37 35.5 °F /  1.9 °C 27.7 °F /  -2.4 °C 29.42 in /  996.2 hPa West 7.1 mph /  11.4 km/h 10.4 mph /  16.7 km/h 73 % 0.00 in /  0 mm
23:42 35.5 °F /  1.9 °C 27.7 °F /  -2.4 °C 29.42 in /  996.2 hPa West 3.3 mph /  5.3 km/h 4.6 mph /  7.4 km/h 73 % 0.00 in /  0 mm
23:47 35.4 °F /  1.9 °C 27.6 °F /  -2.4 °C 29.42 in /  996.2 hPa WSW 3.3 mph /  5.3 km/h 6.9 mph /  11.1 km/h 73 % 0.00 in /  0 mm
23:52 35.3 °F /  1.8 °C 27.5 °F /  -2.5 °C 29.42 in /  996.2 hPa WSW 2.6 mph /  4.2 km/h 5.8 mph /  9.3 km/h 73 % 0.00 in /  0 mm
23:57 35.3 °F /  1.8 °C 27.8 °F /  -2.3 °C 29.42 in /  996.2 hPa WNW 3.0 mph /  4.8 km/h 4.6 mph /  7.4 km/h 74 % 0.00 in /  0 mm
Crab Meadow Weather
Compliments of Weather Underground - 3 mb

Script developed by  Jim McMurry - jmcmurry@mwt.net Adapted for the template by  Wim van der Kuil - Leuven-Template.eu

Heat Index: The heat index combines air temperature and dew point in an attempt to determine the human-perceived equivalent temperature - how hot it feels. The human body normally cools itself by sweating, which evaporates and carries heat away from the body. However, when the relative humidity is high the evaporation rate is reduced, so heat is removed from the body at a lower rate causing it to retain more heat than it would in dry air.